»·PEaware :: N5755D L52-L88

N5755D :: L52-L88

FLIGHT INFORMATION

Flight Status: Arrived
Operator: Privately registered:
United States
More flights under this callsign
Pilot: Timothy N. (16038)
Aircraft: CESSNA 172 SKYHAWK
(C172)
More flights by this aircraft type
Origin: L52 Oceano Co
United States
Destination: L88 New Cuyama
United States
More flights between these airports :: More routes between these airports
Route: DIRECT
File this flight plan on PilotEdge
Remarks:
Altitude:
(Current/Filed)
7,500ft
Speed:
(Current/Filed)
1150kts
Departed: 08-Sep-19 11:05 AM
Arrived: 08-Sep-19 11:37 AM
Distance/Time
Traveled:
47nm/0:32
Distance/Time
To Go:
Arrived

Flight Plot

Page will automatically refresh every two minutes.


Map Options




Map Legend


Flown Route
Filed Route
Departure Airport
Arrival Airport
Navaid (VOR, NDB)
Fix

Horizontal Profiles

Position Reports

Time Latitude Longitude Heading Altitude Ground
Speed
08-Sep-19 10:52 35.103552 -120.624284 214 15ft 0kts
08-Sep-19 10:53 35.103552 -120.624284 214 15ft 0kts
08-Sep-19 10:54 35.103552 -120.624284 214 15ft 0kts
08-Sep-19 10:55 35.103552 -120.624284 214 15ft 0kts
08-Sep-19 10:56 35.103552 -120.624284 214 15ft 0kts
08-Sep-19 10:57 35.103552 -120.624284 214 15ft 0kts
08-Sep-19 10:58 35.103552 -120.624284 214 15ft 0kts
08-Sep-19 10:59 35.103552 -120.624284 214 15ft 0kts
08-Sep-19 11:00 35.103552 -120.624284 214 15ft 0kts
08-Sep-19 11:01 35.103552 -120.624284 214 15ft 0kts
08-Sep-19 11:02 35.102629 -120.623316 122 16ft 16kts
08-Sep-19 11:03 35.101820 -120.622147 212 17ft 0kts
08-Sep-19 11:04 35.105125 -120.629370 297 133ft 79kts
08-Sep-19 11:05 35.110025 -120.654574 217 1104ft 92kts
08-Sep-19 11:06 35.096095 -120.649039 82 2173ft 80kts
08-Sep-19 11:07 35.108373 -120.625924 58 3046ft 89kts
08-Sep-19 11:08 35.103411 -120.598805 108 3964ft 84kts
08-Sep-19 11:09 35.094613 -120.572317 114 4782ft 86kts
08-Sep-19 11:10 35.089295 -120.549439 105 5414ft 87kts
08-Sep-19 11:11 35.084492 -120.523600 79 6088ft 87kts
08-Sep-19 11:12 35.083998 -120.495790 109 6763ft 86kts
08-Sep-19 11:13 35.075945 -120.466851 106 7401ft 90kts
08-Sep-19 11:14 35.068943 -120.432581 109 7485ft 130kts
08-Sep-19 11:15 35.059150 -120.390526 99 7468ft 128kts
08-Sep-19 11:16 35.054115 -120.347828 99 7475ft 128kts
08-Sep-19 11:17 35.048094 -120.305854 100 7487ft 128kts
08-Sep-19 11:18 35.040839 -120.264502 106 7497ft 128kts
08-Sep-19 11:19 35.035538 -120.224636 100 7489ft 128kts
08-Sep-19 11:20 35.027526 -120.188119 108 7500ft 128kts
08-Sep-19 11:21 35.021709 -120.146241 100 7496ft 129kts
08-Sep-19 11:22 35.012776 -120.105221 107 7517ft 128kts
08-Sep-19 11:23 34.999059 -120.068017 116 7306ft 133kts
08-Sep-19 11:24 34.991603 -120.028252 90 7475ft 127kts
08-Sep-19 11:25 34.989564 -119.987408 95 7567ft 126kts
08-Sep-19 11:26 34.983593 -119.945795 107 7627ft 126kts
08-Sep-19 11:27 34.972713 -119.903944 106 7459ft 136kts
08-Sep-19 11:28 34.966691 -119.859994 98 7393ft 131kts
08-Sep-19 11:29 34.962345 -119.813243 94 6458ft 157kts
08-Sep-19 11:30 34.952769 -119.761936 106 4850ft 156kts
08-Sep-19 11:31 34.937969 -119.716472 118 3823ft 131kts
08-Sep-19 11:32 34.918484 -119.687701 133 3474ft 107kts
08-Sep-19 11:33 34.909118 -119.661467 63 2993ft 84kts
08-Sep-19 11:34 34.928642 -119.659091 301 2942ft 81kts
08-Sep-19 11:35 34.937461 -119.679461 296 2228ft 66kts
08-Sep-19 11:36 34.940745 -119.687551 293 2168ft 39kts
08-Sep-19 11:37 34.942691 -119.690750 199 2156ft 0kts
08-Sep-19 11:38 34.942691 -119.690750 199 2156ft 0kts
08-Sep-19 11:39 34.942691 -119.690750 199 2156ft 0kts
08-Sep-19 11:40 34.942691 -119.690750 199 2156ft 0kts
08-Sep-19 11:41 34.942691 -119.690750 199 2156ft 0kts
08-Sep-19 11:42 34.942691 -119.690750 199 2156ft 0kts
08-Sep-19 11:43 34.942691 -119.690750 199 2156ft 0kts
08-Sep-19 11:44 34.942691 -119.690750 199 2156ft 0kts
08-Sep-19 11:45 34.942691 -119.690750 199 2156ft 0kts
08-Sep-19 11:46 34.942689 -119.690751 200 2156ft 0kts
08-Sep-19 11:47 34.942084 -119.690164 133 2158ft 5kts
08-Sep-19 11:48 34.939861 -119.685509 122 2177ft 0kts
08-Sep-19 11:49 34.938860 -119.684160 169 2185ft 0kts
08-Sep-19 11:50 34.938795 -119.684068 88 2185ft 11kts

Navigation Log

Ident Type
Flight plan parsing failed, navigation log unavailable